createdAt,value
2023-04-27T00:00:26.995Z,60.02
2023-04-27T00:01:27.567Z,59.92
2023-04-27T00:02:27.828Z,59.81
2023-04-27T00:03:28.078Z,59.61
2023-04-27T00:04:28.425Z,59.30
2023-04-27T00:05:28.694Z,59.20
2023-04-27T00:06:28.868Z,59.00
2023-04-27T00:07:29.120Z,59.20
2023-04-27T00:08:29.480Z,59.33
2023-04-27T00:09:29.765Z,59.41
2023-04-27T00:10:30.109Z,59.43
2023-04-27T00:11:30.509Z,59.64
2023-04-27T00:12:30.527Z,59.94
2023-04-27T00:13:30.990Z,60.15
2023-04-27T00:14:31.233Z,60.28
2023-04-27T00:15:31.574Z,60.38
2023-04-27T00:16:32.062Z,60.35
2023-04-27T00:17:32.219Z,61.18
2023-04-27T00:18:32.563Z,61.27
2023-04-27T00:19:32.760Z,61.41
2023-04-27T00:20:33.056Z,61.92
2023-04-27T00:21:33.350Z,62.54
2023-04-27T00:22:33.696Z,62.63
2023-04-27T00:23:33.973Z,62.54
2023-04-27T00:24:34.273Z,62.63
2023-04-27T00:25:34.702Z,62.43
2023-04-27T00:26:34.896Z,62.54
2023-04-27T00:27:35.241Z,62.66
2023-04-27T00:28:35.414Z,62.87
2023-04-27T00:29:35.723Z,62.98
2023-04-27T00:30:36.065Z,63.07
2023-04-27T00:31:36.371Z,63.28
2023-04-27T00:32:36.652Z,63.39
2023-04-27T00:33:37.121Z,63.42
2023-04-27T00:34:37.248Z,63.51
2023-04-27T00:35:37.532Z,63.62
2023-04-27T00:36:37.949Z,63.51
2023-04-27T00:37:38.184Z,63.28
2023-04-27T00:38:38.654Z,63.18
2023-04-27T00:39:38.818Z,63.39
2023-04-27T00:40:39.105Z,63.59
2023-04-27T00:41:39.414Z,63.59
2023-04-27T00:42:40.976Z,63.90
2023-04-27T00:43:39.931Z,63.79
2023-04-27T00:44:40.650Z,63.79
2023-04-27T00:45:40.578Z,63.79
2023-04-27T00:46:40.792Z,63.79
2023-04-27T00:47:41.440Z,63.59
2023-04-27T00:48:41.397Z,63.90
2023-04-27T00:49:41.705Z,64.41
2023-04-27T00:50:41.881Z,64.61
2023-04-27T00:51:42.207Z,64.31
2023-04-27T00:52:42.435Z,64.20
2023-04-27T00:53:42.789Z,64.31
2023-04-27T00:54:43.126Z,64.51
2023-04-27T00:55:43.379Z,64.41
2023-04-27T00:56:43.701Z,64.31
2023-04-27T00:57:44.150Z,64.51
2023-04-27T00:58:44.303Z,64.61
2023-04-27T00:59:45.451Z,65.03
2023-04-27T01:00:44.823Z,64.82
2023-04-27T01:01:45.212Z,64.00
2023-04-27T01:02:46.042Z,63.49
2023-04-27T01:03:45.915Z,63.28
2023-04-27T01:04:45.943Z,63.18
2023-04-27T01:05:46.304Z,63.39
2023-04-27T01:06:46.440Z,63.39
2023-04-27T01:07:46.769Z,63.28
2023-04-27T01:08:46.940Z,63.59
2023-04-27T01:09:47.409Z,64.00
2023-04-27T01:10:47.528Z,64.10
2023-04-27T01:11:47.819Z,63.90
2023-04-27T01:12:48.244Z,63.79
2023-04-27T01:13:48.394Z,63.69
2023-04-27T01:14:48.737Z,63.69
2023-04-27T01:15:49.337Z,63.49
2023-04-27T01:16:49.347Z,63.39
2023-04-27T01:17:49.711Z,63.90
2023-04-27T01:18:49.944Z,64.10
2023-04-27T01:19:50.274Z,64.13
2023-04-27T01:20:50.541Z,64.34
2023-04-27T01:21:51.135Z,64.54
2023-04-27T01:22:51.038Z,65.06
2023-04-27T01:23:51.393Z,65.47
2023-04-27T01:24:51.640Z,65.67
2023-04-27T01:25:51.963Z,64.95
2023-04-27T01:26:53.206Z,64.85
2023-04-27T01:27:52.506Z,64.95
2023-04-27T01:28:52.789Z,64.95
2023-04-27T01:29:53.207Z,64.95
2023-04-27T01:30:53.351Z,65.06
2023-04-27T01:31:53.606Z,64.95
2023-04-27T01:32:53.888Z,64.85
2023-04-27T01:33:54.208Z,65.09
2023-04-27T01:34:54.536Z,64.95
2023-04-27T01:35:54.809Z,64.95
2023-04-27T01:36:55.112Z,64.75
2023-04-27T01:37:55.441Z,64.75
2023-04-27T01:38:55.721Z,64.95
2023-04-27T01:39:56.076Z,64.95
2023-04-27T01:40:56.330Z,65.06
2023-04-27T01:41:58.346Z,65.77
2023-04-27T01:42:56.973Z,65.54
2023-04-27T01:43:57.269Z,66.05
2023-04-27T01:44:57.636Z,66.16
2023-04-27T01:45:57.899Z,67.08
2023-04-27T01:46:58.152Z,68.10
2023-04-27T01:47:58.475Z,70.56
2023-04-27T01:48:58.743Z,72.61
2023-04-27T01:49:59.104Z,74.19
2023-04-27T01:51:20.379Z,74.80
2023-04-27T01:51:59.731Z,75.52
2023-04-27T01:53:00.126Z,76.14
2023-04-27T01:54:21.359Z,76.45
2023-04-27T01:55:00.647Z,76.45
2023-04-27T01:56:00.960Z,76.14
2023-04-27T01:57:01.319Z,76.07
2023-04-27T01:58:01.548Z,76.17
2023-04-27T01:59:01.838Z,76.28
2023-04-27T02:00:02.171Z,75.87
2023-04-27T02:01:02.588Z,75.76
2023-04-27T02:02:02.904Z,75.56
2023-04-27T02:03:24.124Z,74.77
2023-04-27T02:04:24.286Z,73.85
2023-04-27T02:05:03.440Z,72.92
2023-04-27T02:06:03.781Z,72.51
2023-04-27T02:07:03.997Z,72.10
2023-04-27T02:08:04.335Z,72.00
2023-04-27T02:09:25.612Z,71.79
2023-04-27T02:10:04.954Z,71.69
2023-04-27T02:11:05.163Z,71.48
2023-04-27T02:12:05.496Z,71.28
2023-04-27T02:13:05.790Z,71.28
2023-04-27T02:14:06.083Z,71.17
2023-04-27T02:15:06.488Z,70.97
2023-04-27T02:16:06.793Z,71.08
2023-04-27T02:17:07.097Z,71.17
2023-04-27T02:18:28.465Z,71.48
2023-04-27T02:19:07.617Z,71.89
2023-04-27T02:20:08.230Z,72.00
2023-04-27T02:21:29.163Z,71.89
2023-04-27T02:22:09.383Z,71.89
2023-04-27T02:23:08.795Z,71.89
2023-04-27T02:24:09.064Z,72.00
2023-04-27T02:25:09.807Z,72.00
2023-04-27T02:26:09.817Z,71.38
2023-04-27T02:27:09.990Z,70.97
2023-04-27T02:30:43.090Z,71.79
2023-04-27T02:31:43.396Z,71.89
2023-04-27T02:32:43.570Z,71.79
2023-04-27T02:33:43.865Z,71.89
2023-04-27T02:35:05.199Z,71.69
2023-04-27T02:36:05.528Z,71.08
2023-04-27T02:39:15.852Z,69.74
2023-04-27T02:40:15.862Z,69.64
2023-04-27T02:42:31.624Z,69.40
2023-04-27T02:43:31.913Z,69.19
2023-04-27T02:45:48.623Z,69.50
2023-04-27T02:46:48.915Z,69.40
2023-04-27T02:48:10.313Z,69.12
2023-04-27T02:48:49.461Z,69.23
2023-04-27T02:52:21.656Z,69.43
2023-04-27T02:54:37.227Z,68.40
2023-04-27T02:56:53.898Z,68.40
2023-04-27T02:58:15.223Z,68.68
2023-04-27T02:59:15.838Z,68.99
2023-04-27T03:00:15.763Z,68.78
2023-04-27T03:01:16.131Z,68.48
2023-04-27T03:02:16.551Z,68.27
2023-04-27T03:02:55.690Z,68.06
2023-04-27T03:03:56.038Z,68.16
2023-04-27T03:05:17.083Z,67.96
2023-04-27T03:07:12.816Z,67.86
2023-04-27T03:08:34.137Z,67.76
2023-04-27T03:09:34.348Z,67.55
2023-04-27T03:10:34.602Z,67.55
2023-04-27T03:14:05.659Z,69.23
2023-04-27T03:18:31.241Z,69.74
2023-04-27T03:19:52.501Z,69.84
2023-04-27T03:20:31.780Z,69.94
2023-04-27T03:21:32.151Z,69.94
2023-04-27T03:22:32.309Z,70.04
2023-04-27T03:23:32.669Z,70.15
2023-04-27T03:24:32.961Z,70.36
2023-04-27T03:25:33.183Z,70.56
2023-04-27T03:26:33.446Z,70.46
2023-04-27T03:27:33.819Z,70.46
2023-04-27T03:28:34.113Z,70.36
2023-04-27T03:29:34.645Z,70.36
2023-04-27T03:30:34.686Z,70.46
2023-04-27T03:31:35.106Z,70.56
2023-04-27T03:32:35.436Z,70.79
2023-04-27T03:33:35.598Z,70.87
2023-04-27T03:34:35.958Z,70.87
2023-04-27T03:35:36.306Z,70.87
2023-04-27T03:36:36.579Z,70.87
2023-04-27T03:37:36.888Z,70.97
2023-04-27T03:38:37.040Z,71.28
2023-04-27T03:39:37.427Z,71.48
2023-04-27T03:40:37.676Z,71.38
2023-04-27T03:41:37.951Z,71.17
2023-04-27T03:42:38.158Z,71.11
2023-04-27T03:43:38.549Z,71.31
2023-04-27T03:44:39.021Z,71.21
2023-04-27T03:45:39.154Z,71.28
2023-04-27T03:46:39.540Z,71.17
2023-04-27T03:47:39.704Z,71.17
2023-04-27T03:48:39.915Z,71.17
2023-04-27T03:49:40.201Z,71.08
2023-04-27T03:50:40.570Z,71.28
2023-04-27T03:51:40.732Z,71.38
2023-04-27T03:52:41.067Z,70.87
2023-04-27T03:53:41.304Z,70.66
2023-04-27T03:54:41.521Z,69.94
2023-04-27T03:55:41.982Z,69.84
2023-04-27T03:56:42.176Z,69.98
2023-04-27T03:57:42.343Z,69.94
2023-04-27T03:58:42.656Z,69.98
2023-04-27T03:59:43.016Z,69.87
2023-04-27T04:00:43.194Z,69.87
2023-04-27T04:01:43.559Z,69.98
2023-04-27T04:02:43.913Z,70.08
2023-04-27T04:03:44.235Z,70.52
2023-04-27T04:04:44.435Z,70.52
2023-04-27T04:05:44.657Z,70.42
2023-04-27T04:06:44.863Z,70.42
2023-04-27T04:07:45.184Z,70.42
2023-04-27T04:08:45.400Z,70.62
2023-04-27T04:09:45.789Z,70.73
2023-04-27T04:10:46.099Z,70.62
2023-04-27T04:11:46.294Z,70.42
2023-04-27T04:12:46.529Z,70.32
2023-04-27T04:13:46.860Z,70.32
2023-04-27T04:14:47.245Z,70.11
2023-04-27T04:15:47.582Z,70.11
2023-04-27T04:16:47.807Z,70.42
2023-04-27T04:17:48.018Z,70.56
2023-04-27T04:18:48.457Z,70.76
2023-04-27T04:19:48.675Z,70.86
2023-04-27T04:20:48.849Z,70.86
2023-04-27T04:21:50.193Z,70.97
2023-04-27T04:22:49.603Z,71.07
2023-04-27T04:23:49.842Z,71.28
2023-04-27T04:24:50.010Z,71.37
2023-04-27T04:25:50.400Z,71.07
2023-04-27T04:26:50.712Z,71.17
2023-04-27T04:27:50.886Z,71.28
2023-04-27T04:28:51.210Z,71.17
2023-04-27T04:29:51.430Z,71.07
2023-04-27T04:30:51.776Z,71.17
2023-04-27T04:31:52.239Z,71.37
2023-04-27T04:32:52.461Z,71.48
2023-04-27T04:33:52.654Z,71.17
2023-04-27T04:34:53.001Z,71.17
2023-04-27T04:35:53.443Z,71.17
2023-04-27T04:36:53.633Z,71.37
2023-04-27T04:37:53.985Z,71.28
2023-04-27T04:38:54.132Z,71.17
2023-04-27T04:39:54.403Z,71.14
2023-04-27T04:40:54.718Z,71.34
2023-04-27T04:41:54.882Z,71.24
2023-04-27T04:42:55.379Z,71.14
2023-04-27T04:43:55.560Z,70.83
2023-04-27T04:44:55.785Z,70.94
2023-04-27T04:45:56.158Z,71.24
2023-04-27T04:46:56.463Z,71.45
2023-04-27T04:47:57.221Z,71.45
2023-04-27T04:48:57.071Z,71.34
2023-04-27T04:49:57.283Z,71.34
2023-04-27T04:50:57.692Z,71.21
2023-04-27T04:51:57.907Z,71.31
2023-04-27T04:52:58.528Z,71.31
2023-04-27T04:54:01.110Z,71.41
2023-04-27T04:54:58.941Z,71.31
2023-04-27T04:55:59.138Z,71.41
2023-04-27T04:56:59.397Z,71.41
2023-04-27T04:58:00.539Z,71.21
2023-04-27T04:58:59.918Z,71.11
2023-04-27T05:00:01.088Z,71.08
2023-04-27T05:01:00.392Z,71.28
2023-04-27T05:02:00.689Z,71.48
2023-04-27T05:03:00.998Z,71.89
2023-04-27T05:04:01.568Z,72.00
2023-04-27T05:05:01.495Z,72.00
2023-04-27T05:06:01.788Z,72.20
2023-04-27T05:07:02.014Z,72.51
2023-04-27T05:08:02.275Z,72.82
2023-04-27T05:09:02.587Z,72.51
2023-04-27T05:10:02.850Z,72.61
2023-04-27T05:11:03.089Z,72.61
2023-04-27T05:12:03.246Z,72.61
2023-04-27T05:13:05.927Z,72.31
2023-04-27T05:14:03.901Z,72.20
2023-04-27T05:15:04.182Z,72.41
2023-04-27T05:16:04.398Z,72.31
2023-04-27T05:17:04.729Z,72.20
2023-04-27T05:18:05.036Z,72.00
2023-04-27T05:19:05.211Z,72.17
2023-04-27T05:20:06.022Z,72.06
2023-04-27T05:21:05.851Z,71.66
2023-04-27T05:22:06.248Z,70.84
2023-04-27T05:23:06.478Z,70.84
2023-04-27T05:24:06.774Z,70.42
2023-04-27T05:25:06.981Z,70.22
2023-04-27T05:26:07.252Z,70.12
2023-04-27T05:27:07.702Z,70.01
2023-04-27T05:28:07.895Z,69.81
2023-04-27T05:29:08.560Z,69.67
2023-04-27T05:30:08.574Z,69.47
2023-04-27T05:31:08.948Z,69.26
2023-04-27T05:32:09.261Z,69.16
2023-04-27T05:33:09.976Z,69.16
2023-04-27T05:34:09.769Z,69.06
2023-04-27T05:35:10.074Z,68.13
2023-04-27T05:36:10.344Z,67.11
2023-04-27T05:37:10.509Z,66.90
2023-04-27T05:38:10.882Z,66.70
2023-04-27T05:39:11.179Z,66.60
2023-04-27T05:40:11.446Z,66.60
2023-04-27T05:41:11.675Z,66.97
2023-04-27T05:42:11.920Z,67.49
2023-04-27T05:43:12.231Z,67.69
2023-04-27T05:44:12.453Z,67.49
2023-04-27T05:45:12.836Z,66.87
2023-04-27T05:46:13.052Z,66.46
2023-04-27T05:47:13.330Z,66.56
2023-04-27T05:48:13.514Z,66.77
2023-04-27T05:49:14.051Z,66.77
2023-04-27T05:50:14.587Z,66.63
2023-04-27T05:51:14.405Z,67.35
2023-04-27T05:52:14.628Z,67.66
2023-04-27T05:53:14.859Z,67.97
2023-04-27T05:54:15.215Z,68.27
2023-04-27T05:55:15.578Z,68.17
2023-04-27T05:56:15.769Z,67.97
2023-04-27T05:57:15.992Z,67.86
2023-04-27T05:58:16.354Z,68.17
2023-04-27T05:59:16.780Z,68.17
2023-04-27T06:00:17.834Z,67.86
2023-04-27T06:01:17.269Z,67.97
2023-04-27T06:02:17.572Z,67.86
2023-04-27T06:03:17.865Z,68.27
2023-04-27T06:04:18.212Z,68.38
2023-04-27T06:05:18.495Z,67.97
2023-04-27T06:06:18.816Z,67.56
2023-04-27T06:07:18.946Z,67.66
2023-04-27T06:08:19.267Z,67.35
2023-04-27T06:09:19.482Z,67.25
2023-04-27T06:10:19.936Z,67.05
2023-04-27T06:11:20.059Z,66.91
2023-04-27T06:12:20.297Z,66.91
2023-04-27T06:13:20.676Z,67.02
2023-04-27T06:14:21.882Z,67.22
2023-04-27T06:15:23.335Z,67.63
2023-04-27T06:16:23.309Z,67.52
2023-04-27T06:17:24.475Z,67.73
2023-04-27T06:18:21.964Z,67.73
2023-04-27T06:19:22.314Z,68.14
2023-04-27T06:20:22.472Z,68.55
2023-04-27T06:21:22.743Z,68.41
2023-04-27T06:22:23.157Z,68.21
2023-04-27T06:23:23.336Z,67.40
2023-04-27T06:24:23.588Z,67.29
2023-04-27T06:25:26.640Z,66.78
2023-04-27T06:26:24.111Z,66.57
2023-04-27T06:27:24.356Z,66.57
2023-04-27T06:28:24.590Z,66.88
2023-04-27T06:29:24.888Z,66.88
2023-04-27T06:30:25.212Z,66.98
2023-04-27T06:31:25.551Z,67.08
2023-04-27T06:32:26.162Z,66.78
2023-04-27T06:33:26.077Z,66.75
2023-04-27T06:34:26.300Z,66.34
2023-04-27T06:35:26.614Z,66.24
2023-04-27T06:36:27.363Z,66.24
2023-04-27T06:37:27.185Z,66.34
2023-04-27T06:38:27.706Z,66.24
2023-04-27T06:39:27.878Z,66.20
2023-04-27T06:40:28.189Z,66.00
2023-04-27T06:41:28.479Z,66.20
2023-04-27T06:42:28.566Z,66.51
2023-04-27T06:43:29.081Z,66.00
2023-04-27T06:44:29.171Z,66.10
2023-04-27T06:45:29.588Z,66.10
2023-04-27T06:46:29.779Z,65.66
2023-04-27T06:47:30.188Z,65.36
2023-04-27T06:48:30.504Z,65.46
2023-04-27T06:49:30.919Z,65.69
2023-04-27T06:50:31.022Z,65.87
2023-04-27T06:51:31.241Z,65.87
2023-04-27T06:52:31.564Z,65.56
2023-04-27T06:53:32.065Z,65.77
2023-04-27T06:54:32.108Z,65.87
2023-04-27T06:55:32.348Z,65.22
2023-04-27T06:56:32.580Z,64.61
2023-04-27T06:57:32.894Z,64.61
2023-04-27T06:58:33.169Z,64.61
2023-04-27T06:59:33.491Z,65.02
2023-04-27T07:00:33.854Z,64.84
2023-04-27T07:01:33.972Z,64.71
2023-04-27T07:02:34.289Z,64.92
2023-04-27T07:03:34.708Z,64.71
2023-04-27T07:04:35.799Z,64.71
2023-04-27T07:05:35.092Z,64.51
2023-04-27T07:06:35.296Z,64.30
2023-04-27T07:07:35.671Z,64.00
2023-04-27T07:08:36.941Z,63.76
2023-04-27T07:09:36.195Z,63.35
2023-04-27T07:10:36.431Z,62.92
2023-04-27T07:11:36.867Z,62.92
2023-04-27T07:12:36.877Z,63.22
2023-04-27T07:13:37.285Z,63.22
2023-04-27T07:14:37.631Z,63.22
2023-04-27T07:15:37.870Z,63.53
2023-04-27T07:16:38.144Z,63.73
2023-04-27T07:17:38.473Z,63.63
2023-04-27T07:18:38.723Z,63.40
2023-04-27T07:19:38.993Z,62.99
2023-04-27T07:20:40.616Z,63.09
2023-04-27T07:21:39.577Z,62.88
2023-04-27T07:22:39.813Z,62.78
2023-04-27T07:23:40.113Z,63.09
2023-04-27T07:24:40.339Z,63.19
2023-04-27T07:25:40.832Z,62.88
2023-04-27T07:26:40.915Z,62.58
2023-04-27T07:27:41.270Z,62.48
2023-04-27T07:28:42.755Z,61.94
2023-04-27T07:29:41.791Z,61.53
2023-04-27T07:30:42.521Z,60.92
2023-04-27T07:31:44.198Z,60.71
2023-04-27T07:32:42.703Z,60.41
2023-04-27T07:33:42.944Z,60.07
2023-04-27T07:34:52.523Z,59.16
2023-04-27T07:35:44.667Z,58.85
2023-04-27T07:36:43.979Z,58.44
2023-04-27T07:37:44.185Z,58.41
2023-04-27T07:38:44.486Z,56.68
2023-04-27T07:39:44.729Z,56.68
2023-04-27T07:40:45.053Z,56.88
2023-04-27T07:41:45.374Z,56.99
2023-04-27T07:42:45.672Z,57.29
2023-04-27T07:43:45.914Z,57.93
2023-04-27T07:44:46.178Z,57.70
2023-04-27T07:45:47.354Z,56.78
2023-04-27T07:46:46.796Z,57.39
2023-04-27T07:47:46.992Z,57.19
2023-04-27T07:48:47.355Z,56.48
2023-04-27T07:49:47.657Z,56.27
2023-04-27T07:50:47.907Z,56.37
2023-04-27T07:51:48.100Z,56.65
2023-04-27T07:52:48.455Z,56.04
2023-04-27T07:53:49.500Z,55.53
2023-04-27T07:54:48.954Z,55.43
2023-04-27T07:55:49.217Z,55.51
2023-04-27T07:56:49.460Z,55.81
2023-04-27T07:57:49.749Z,55.81
2023-04-27T07:58:50.088Z,55.28
2023-04-27T07:59:50.419Z,54.77
2023-04-27T08:00:50.692Z,54.66
2023-04-27T08:01:50.967Z,54.54
2023-04-27T08:02:51.412Z,53.93
2023-04-27T08:03:52.543Z,52.71
2023-04-27T08:04:52.105Z,53.11
2023-04-27T08:05:53.344Z,53.42
2023-04-27T08:06:52.535Z,53.39
2023-04-27T08:07:53.153Z,53.29
2023-04-27T08:08:52.949Z,52.68
2023-04-27T08:09:53.249Z,52.66
2023-04-27T08:10:53.478Z,52.05
2023-04-27T08:11:54.580Z,52.35
2023-04-27T08:12:54.095Z,52.45
2023-04-27T08:13:54.347Z,51.92
2023-04-27T08:14:54.628Z,51.16
2023-04-27T08:15:54.974Z,50.65
2023-04-27T08:16:55.294Z,50.53
2023-04-27T08:17:55.466Z,50.02
2023-04-27T08:18:55.682Z,49.67
2023-04-27T08:19:55.950Z,48.31
2023-04-27T08:20:56.275Z,47.80
2023-04-27T08:21:56.531Z,46.67
2023-04-27T08:22:56.730Z,46.44
2023-04-27T08:23:57.118Z,46.01
2023-04-27T08:24:57.327Z,45.31
2023-04-27T08:25:57.643Z,45.51
2023-04-27T08:26:58.031Z,45.49
2023-04-27T08:27:58.300Z,44.64
2023-04-27T08:28:58.733Z,44.34
2023-04-27T08:29:58.855Z,44.42
2023-04-27T08:30:59.136Z,43.66
2023-04-27T08:32:00.349Z,42.47
2023-04-27T08:32:59.681Z,42.88
2023-04-27T08:34:01.005Z,43.51
2023-04-27T08:35:00.187Z,42.98
2023-04-27T08:36:00.519Z,42.66
2023-04-27T08:37:00.765Z,42.03
2023-04-27T08:38:01.122Z,41.09
2023-04-27T08:39:01.340Z,40.97
2023-04-27T08:40:02.961Z,41.15
2023-04-27T08:41:14.180Z,40.73
2023-04-27T08:42:03.279Z,40.12
2023-04-27T08:43:02.591Z,40.02
2023-04-27T08:44:02.795Z,39.50
2023-04-27T08:45:03.096Z,39.42
2023-04-27T08:46:03.452Z,39.34
2023-04-27T08:47:03.678Z,39.05
2023-04-27T08:48:04.013Z,39.28
2023-04-27T08:49:04.420Z,38.87
2023-04-27T08:50:04.548Z,39.07
2023-04-27T08:51:05.081Z,38.85
2023-04-27T08:52:06.244Z,38.99
2023-04-27T08:53:05.471Z,39.19
2023-04-27T08:54:05.690Z,39.37
2023-04-27T08:55:06.037Z,39.31
2023-04-27T08:56:06.309Z,39.59
2023-04-27T08:57:06.549Z,39.53
2023-04-27T08:58:06.820Z,39.73
2023-04-27T08:59:07.134Z,40.05
2023-04-27T09:00:07.355Z,40.14
2023-04-27T09:01:07.613Z,39.90
2023-04-27T09:02:08.078Z,39.15
2023-04-27T09:03:08.416Z,38.73
2023-04-27T09:04:08.769Z,38.11
2023-04-27T09:05:09.822Z,37.61
2023-04-27T09:06:09.187Z,37.51
2023-04-27T09:07:09.468Z,37.73
2023-04-27T09:08:09.768Z,37.32
2023-04-27T09:09:09.986Z,37.52
2023-04-27T09:10:10.223Z,37.63
2023-04-27T09:11:10.533Z,37.41
2023-04-27T09:12:10.841Z,37.21
2023-04-27T09:13:11.125Z,37.19
2023-04-27T09:14:11.333Z,37.39
2023-04-27T09:15:11.589Z,37.07
2023-04-27T09:16:12.097Z,36.55
2023-04-27T09:17:12.177Z,36.65
2023-04-27T09:18:12.518Z,36.27
2023-04-27T09:19:13.111Z,36.03
2023-04-27T09:20:12.962Z,35.53
2023-04-27T09:21:13.203Z,35.53
2023-04-27T09:22:13.418Z,35.41
2023-04-27T09:23:13.682Z,35.31
2023-04-27T09:24:13.963Z,35.30
2023-04-27T09:25:14.378Z,34.88
2023-04-27T09:26:14.488Z,34.46
2023-04-27T09:27:14.720Z,34.34
2023-04-27T09:28:14.955Z,33.94
2023-04-27T09:29:15.699Z,33.96
2023-04-27T09:30:15.653Z,34.36
2023-04-27T09:31:15.969Z,33.84
2023-04-27T09:32:17.009Z,33.43
2023-04-27T09:33:16.335Z,32.79
2023-04-27T09:34:16.695Z,32.70
2023-04-27T09:35:17.028Z,32.40
2023-04-27T09:36:17.270Z,32.38
2023-04-27T09:37:17.652Z,32.26
2023-04-27T09:38:17.893Z,32.28
2023-04-27T09:39:18.049Z,32.50
2023-04-27T09:40:18.333Z,32.58
2023-04-27T09:41:18.649Z,32.06
2023-04-27T09:42:19.003Z,32.06
2023-04-27T09:43:19.176Z,32.18
2023-04-27T09:44:19.607Z,32.89
2023-04-27T09:45:19.817Z,32.58
2023-04-27T09:46:20.173Z,32.38
2023-04-27T09:47:20.353Z,32.26
2023-04-27T09:48:20.633Z,32.06
2023-04-27T09:49:20.901Z,32.31
2023-04-27T09:50:21.173Z,32.81
2023-04-27T09:51:21.468Z,33.24
2023-04-27T09:52:21.749Z,33.86
2023-04-27T09:53:22.012Z,34.08
2023-04-27T09:54:22.279Z,33.84
2023-04-27T09:55:22.581Z,33.29
2023-04-27T09:56:22.885Z,32.88
2023-04-27T09:57:23.160Z,32.98
2023-04-27T09:58:23.500Z,32.89
2023-04-27T09:59:23.731Z,33.39
2023-04-27T10:00:24.033Z,33.20
2023-04-27T10:01:24.392Z,32.78
2023-04-27T10:02:25.725Z,32.58
2023-04-27T10:03:24.896Z,33.20
2023-04-27T10:04:25.450Z,32.68
2023-04-27T10:05:25.757Z,33.09
2023-04-27T10:06:25.888Z,33.08
2023-04-27T10:07:26.045Z,32.25
2023-04-27T10:08:26.319Z,31.92
2023-04-27T10:09:26.563Z,31.70
2023-04-27T10:10:26.988Z,31.21
2023-04-27T10:11:27.080Z,31.42
2023-04-27T10:12:27.510Z,31.93
2023-04-27T10:13:27.829Z,32.35
2023-04-27T10:14:28.223Z,32.85
2023-04-27T10:15:28.449Z,33.18
2023-04-27T10:16:28.866Z,33.20
2023-04-27T10:17:28.951Z,34.14
2023-04-27T10:18:29.269Z,34.98
2023-04-27T10:19:29.509Z,35.39
2023-04-27T10:20:29.838Z,35.89
2023-04-27T10:21:30.165Z,35.68
2023-04-27T10:22:30.330Z,34.94
2023-04-27T10:23:30.631Z,34.73
2023-04-27T10:24:31.767Z,34.51
2023-04-27T10:25:31.261Z,33.91
2023-04-27T10:26:32.089Z,34.23
2023-04-27T10:27:31.778Z,34.43
2023-04-27T10:28:31.984Z,34.31
2023-04-27T10:29:32.254Z,33.71
2023-04-27T10:30:32.640Z,33.50
2023-04-27T10:31:32.929Z,33.25
2023-04-27T10:32:33.000Z,32.30
2023-04-27T10:33:33.392Z,31.99
2023-04-27T10:34:33.618Z,30.76
2023-04-27T10:35:33.991Z,31.10
2023-04-27T10:36:34.160Z,31.30
2023-04-27T10:37:34.635Z,30.89
2023-04-27T10:38:34.828Z,30.48
2023-04-27T10:39:47.141Z,30.07
2023-04-27T10:40:36.458Z,30.18
2023-04-27T10:41:35.730Z,30.58
2023-04-27T10:42:36.068Z,30.28
2023-04-27T10:43:36.446Z,30.49
2023-04-27T10:44:36.546Z,30.36
2023-04-27T10:45:37.822Z,30.13
2023-04-27T10:46:37.153Z,29.43
2023-04-27T10:47:37.488Z,28.93
2023-04-27T10:48:37.654Z,29.67
2023-04-27T10:49:37.897Z,30.07
2023-04-27T10:50:38.222Z,30.15
2023-04-27T10:51:38.500Z,29.33
2023-04-27T10:52:38.715Z,28.22
2023-04-27T10:53:39.997Z,28.63
2023-04-27T10:54:39.418Z,28.44
2023-04-27T10:55:39.709Z,29.43
2023-04-27T10:56:40.014Z,30.83
2023-04-27T10:57:40.295Z,30.71
2023-04-27T10:58:48.895Z,29.90
2023-04-27T10:59:41.950Z,29.81
2023-04-27T11:00:41.153Z,30.11
2023-04-27T11:01:41.489Z,29.72
2023-04-27T11:02:41.822Z,29.64
2023-04-27T11:03:42.153Z,29.63
2023-04-27T11:04:42.400Z,29.81
2023-04-27T11:05:42.721Z,29.41
2023-04-27T11:06:42.990Z,29.30
2023-04-27T11:07:43.491Z,29.00
2023-04-27T11:08:43.522Z,28.57
2023-04-27T11:09:43.797Z,28.47
2023-04-27T11:10:44.033Z,28.46
2023-04-27T11:11:44.332Z,28.12
2023-04-27T11:12:44.670Z,30.28
2023-04-27T11:13:45.994Z,30.05
2023-04-27T11:14:45.973Z,29.94
2023-04-27T11:15:45.877Z,29.85
2023-04-27T11:16:45.784Z,29.72
2023-04-27T11:17:46.070Z,29.30
2023-04-27T11:18:46.275Z,28.67
2023-04-27T11:19:46.557Z,28.46
2023-04-27T11:20:46.944Z,28.49
2023-04-27T11:21:47.301Z,28.69
2023-04-27T11:22:47.633Z,28.69
2023-04-27T11:23:47.951Z,28.36
2023-04-27T11:24:49.096Z,28.46
2023-04-27T11:25:48.496Z,28.55
2023-04-27T11:26:48.796Z,28.64
2023-04-27T11:27:48.999Z,28.44
2023-04-27T11:28:49.413Z,28.64
2023-04-27T11:29:49.748Z,28.64
2023-04-27T11:30:50.052Z,28.64
2023-04-27T11:31:50.312Z,28.83
2023-04-27T11:32:51.573Z,28.52
2023-04-27T11:33:50.937Z,28.47
2023-04-27T11:34:51.218Z,29.27
2023-04-27T11:35:51.483Z,29.58
2023-04-27T11:36:51.767Z,29.24
2023-04-27T11:37:52.010Z,28.73
2023-04-27T11:38:52.304Z,28.42
2023-04-27T11:39:52.639Z,28.23
2023-04-27T11:40:52.865Z,28.53
2023-04-27T11:41:52.994Z,28.13
2023-04-27T11:42:53.208Z,29.07
2023-04-27T11:43:53.606Z,28.87
2023-04-27T11:44:54.162Z,28.86
2023-04-27T11:45:54.051Z,29.05
2023-04-27T11:46:54.619Z,29.04
2023-04-27T11:47:54.778Z,28.73
2023-04-27T11:48:54.953Z,28.02
2023-04-27T11:49:55.236Z,27.50
2023-04-27T11:50:55.534Z,27.99
2023-04-27T11:51:55.792Z,28.11
2023-04-27T11:52:56.200Z,27.41
2023-04-27T11:53:57.200Z,28.06
2023-04-27T11:54:56.607Z,28.66
2023-04-27T11:55:56.850Z,28.76
2023-04-27T11:56:57.067Z,28.96
2023-04-27T11:57:57.496Z,29.14
2023-04-27T11:58:57.604Z,28.94
2023-04-27T11:59:58.013Z,29.24
2023-04-27T12:00:58.128Z,29.14
2023-04-27T12:01:58.426Z,29.55
2023-04-27T12:02:58.972Z,29.65
2023-04-27T12:04:02.126Z,29.86
2023-04-27T12:05:00.046Z,30.48
2023-04-27T12:06:11.691Z,31.22
2023-04-27T12:07:00.794Z,31.46
2023-04-27T12:08:00.004Z,32.18
2023-04-27T12:09:00.222Z,32.70
2023-04-27T12:10:01.061Z,33.23
2023-04-27T12:11:00.992Z,33.76
2023-04-27T12:12:01.257Z,34.55
2023-04-27T12:13:01.459Z,34.28
2023-04-27T12:14:01.767Z,34.69
2023-04-27T12:15:01.985Z,35.10
2023-04-27T12:16:02.285Z,35.41
2023-04-27T12:17:02.648Z,35.82
2023-04-27T12:18:03.069Z,34.99
2023-04-27T12:19:03.231Z,34.88
2023-04-27T12:20:03.435Z,34.58
2023-04-27T12:21:04.038Z,34.56
2023-04-27T12:22:03.939Z,34.06
2023-04-27T12:23:04.192Z,34.56
2023-04-27T12:24:04.500Z,34.56
2023-04-27T12:25:04.797Z,34.26
2023-04-27T12:26:05.028Z,34.91
2023-04-27T12:27:05.263Z,35.11
2023-04-27T12:28:05.621Z,35.21
2023-04-27T12:29:05.769Z,35.21
2023-04-27T12:30:06.182Z,35.41
2023-04-27T12:31:06.504Z,35.41
2023-04-27T12:32:06.748Z,35.21
2023-04-27T12:33:07.065Z,35.61
2023-04-27T12:34:07.372Z,35.61
2023-04-27T12:35:07.648Z,35.31
2023-04-27T12:36:07.824Z,35.35
2023-04-27T12:37:08.319Z,35.77
2023-04-27T12:38:08.378Z,36.50
2023-04-27T12:39:09.095Z,36.90
2023-04-27T12:40:08.918Z,36.99
2023-04-27T12:41:09.183Z,36.36
2023-04-27T12:42:09.404Z,36.16
2023-04-27T12:43:09.765Z,36.05
2023-04-27T12:44:10.030Z,35.85
2023-04-27T12:45:10.354Z,35.64
2023-04-27T12:46:10.559Z,35.75
2023-04-27T12:47:13.540Z,35.55
2023-04-27T12:48:12.048Z,35.86
2023-04-27T12:49:11.332Z,36.07
2023-04-27T12:50:11.719Z,36.49
2023-04-27T12:51:11.922Z,36.79
2023-04-27T12:52:12.112Z,36.58
2023-04-27T12:53:12.463Z,37.65
2023-04-27T12:54:13.217Z,37.85
2023-04-27T12:55:28.949Z,37.85
2023-04-27T12:56:14.347Z,37.83
2023-04-27T12:57:13.578Z,37.41
2023-04-27T12:58:13.917Z,36.99
2023-04-27T12:59:14.286Z,36.99
2023-04-27T13:00:14.655Z,36.67
2023-04-27T13:01:14.852Z,36.57
2023-04-27T13:02:15.302Z,36.77
2023-04-27T13:03:15.491Z,36.87
2023-04-27T13:04:15.955Z,36.65
2023-04-27T13:05:15.935Z,36.65
2023-04-27T13:06:16.174Z,36.63
2023-04-27T13:07:16.394Z,36.03
2023-04-27T13:08:16.794Z,36.03
2023-04-27T13:09:17.871Z,36.13
2023-04-27T13:10:17.249Z,35.93
2023-04-27T13:11:17.521Z,36.15
2023-04-27T13:12:17.843Z,36.23
2023-04-27T13:13:18.117Z,36.75
2023-04-27T13:14:18.520Z,36.85
2023-04-27T13:15:18.800Z,36.73
2023-04-27T13:16:19.076Z,36.13